sensor_id;sensor_type;location;lat;lon;timestamp;pressure;altitude;pressure_sealevel;temperature;humidity
73455;BME280;61690;51.824;6.306;2023-12-20T00:01:22;101404.78;;;16.93;51.62
73455;BME280;61690;51.824;6.306;2023-12-20T00:03:48;101414.69;;;16.88;51.59
73455;BME280;61690;51.824;6.306;2023-12-20T00:06:13;101413.81;;;16.87;51.74
73455;BME280;61690;51.824;6.306;2023-12-20T00:08:38;101421.69;;;16.87;51.66
73455;BME280;61690;51.824;6.306;2023-12-20T00:11:04;101416.50;;;16.85;51.31
73455;BME280;61690;51.824;6.306;2023-12-20T00:13:29;101414.75;;;16.86;51.66
73455;BME280;61690;51.824;6.306;2023-12-20T00:15:54;101407.78;;;16.85;51.81
73455;BME280;61690;51.824;6.306;2023-12-20T00:18:20;101413.13;;;16.83;51.44
73455;BME280;61690;51.824;6.306;2023-12-20T00:20:45;101409.63;;;16.83;51.47
73455;BME280;61690;51.824;6.306;2023-12-20T00:23:10;101414.94;;;16.81;51.70
73455;BME280;61690;51.824;6.306;2023-12-20T00:25:35;101414.91;;;16.83;51.78
73455;BME280;61690;51.824;6.306;2023-12-20T00:28:01;101414.94;;;16.81;51.52
73455;BME280;61690;51.824;6.306;2023-12-20T00:30:27;101410.63;;;16.80;51.48
73455;BME280;61690;51.824;6.306;2023-12-20T00:32:53;101406.28;;;16.79;51.59
73455;BME280;61690;51.824;6.306;2023-12-20T00:35:18;101407.22;;;16.78;51.54
73455;BME280;61690;51.824;6.306;2023-12-20T00:37:44;101415.09;;;16.78;51.43
73455;BME280;61690;51.824;6.306;2023-12-20T00:40:09;101411.53;;;16.79;51.71
73455;BME280;61690;51.824;6.306;2023-12-20T00:42:35;101411.72;;;16.76;51.74
73455;BME280;61690;51.824;6.306;2023-12-20T00:45:01;101409.84;;;16.78;51.66
73455;BME280;61690;51.824;6.306;2023-12-20T00:47:27;101404.59;;;16.78;51.24
73455;BME280;61690;51.824;6.306;2023-12-20T00:49:52;101413.47;;;16.76;51.52
73455;BME280;61690;51.824;6.306;2023-12-20T00:52:18;101410.16;;;16.72;51.47
73455;BME280;61690;51.824;6.306;2023-12-20T00:54:43;101413.69;;;16.71;51.80
73455;BME280;61690;51.824;6.306;2023-12-20T00:57:09;101411.84;;;16.73;51.70
73455;BME280;61690;51.824;6.306;2023-12-20T00:59:34;101419.72;;;16.73;51.70
73455;BME280;61690;51.824;6.306;2023-12-20T01:01:59;101416.41;;;16.70;51.79
73455;BME280;61690;51.824;6.306;2023-12-20T01:04:25;101412.78;;;16.72;51.63
73455;BME280;61690;51.824;6.306;2023-12-20T01:06:50;101404.22;;;16.69;51.80
73455;BME280;61690;51.824;6.306;2023-12-20T01:09:16;101411.06;;;16.71;51.69
73455;BME280;61690;51.824;6.306;2023-12-20T01:11:41;101412.94;;;16.69;51.47
73455;BME280;61690;51.824;6.306;2023-12-20T01:14:06;101409.59;;;16.65;51.95
73455;BME280;61690;51.824;6.306;2023-12-20T01:16:32;101416.63;;;16.65;51.89
73455;BME280;61690;51.824;6.306;2023-12-20T01:18:57;101414.00;;;16.65;51.99
73455;BME280;61690;51.824;6.306;2023-12-20T01:21:22;101410.44;;;16.66;51.83
73455;BME280;61690;51.824;6.306;2023-12-20T01:23:47;101407.91;;;16.64;51.84
73455;BME280;61690;51.824;6.306;2023-12-20T01:26:14;101407.91;;;16.64;51.49
73455;BME280;61690;51.824;6.306;2023-12-20T01:28:40;101405.34;;;16.63;51.83
73455;BME280;61690;51.824;6.306;2023-12-20T01:31:05;101410.59;;;16.63;51.63
73455;BME280;61690;51.824;6.306;2023-12-20T01:33:30;101408.88;;;16.62;51.61
73455;BME280;61690;51.824;6.306;2023-12-20T01:35:55;101413.31;;;16.61;51.89
73455;BME280;61690;51.824;6.306;2023-12-20T01:38:21;101414.16;;;16.62;51.83
73455;BME280;61690;51.824;6.306;2023-12-20T01:40:46;101411.59;;;16.60;51.95
73455;BME280;61690;51.824;6.306;2023-12-20T01:43:11;101419.56;;;16.59;51.62
73455;BME280;61690;51.824;6.306;2023-12-20T01:45:37;101422.97;;;16.61;51.96
73455;BME280;61690;51.824;6.306;2023-12-20T01:48:04;101423.81;;;16.61;51.70
73455;BME280;61690;51.824;6.306;2023-12-20T01:50:31;101431.81;;;16.58;51.58
73455;BME280;61690;51.824;6.306;2023-12-20T01:52:59;101426.56;;;16.58;51.82
73455;BME280;61690;51.824;6.306;2023-12-20T01:55:27;101419.78;;;16.54;52.04
73455;BME280;61690;51.824;6.306;2023-12-20T01:57:53;101423.25;;;16.55;51.82
73455;BME280;61690;51.824;6.306;2023-12-20T02:00:19;101422.25;;;16.57;51.90
73455;BME280;61690;51.824;6.306;2023-12-20T02:02:48;101427.59;;;16.56;51.70
73455;BME280;61690;51.824;6.306;2023-12-20T02:05:15;101424.25;;;16.52;51.87
73455;BME280;61690;51.824;6.306;2023-12-20T02:07:40;101423.25;;;16.55;51.48
73455;BME280;61690;51.824;6.306;2023-12-20T02:10:06;101422.41;;;16.54;51.89
73455;BME280;61690;51.824;6.306;2023-12-20T02:12:31;101422.56;;;16.51;51.77
73455;BME280;61690;51.824;6.306;2023-12-20T02:14:57;101417.31;;;16.51;51.61
73455;BME280;61690;51.824;6.306;2023-12-20T02:17:23;101426.88;;;16.52;51.74
73455;BME280;61690;51.824;6.306;2023-12-20T02:19:49;101429.28;;;16.57;51.98
73455;BME280;61690;51.824;6.306;2023-12-20T02:22:15;101430.50;;;16.50;51.77
73455;BME280;61690;51.824;6.306;2023-12-20T02:24:40;101435.59;;;16.53;51.83
73455;BME280;61690;51.824;6.306;2023-12-20T02:27:07;101428.66;;;16.52;51.84
73455;BME280;61690;51.824;6.306;2023-12-20T02:29:33;101430.50;;;16.50;51.88
73455;BME280;61690;51.824;6.306;2023-12-20T02:31:59;101433.19;;;16.48;51.62
73455;BME280;61690;51.824;6.306;2023-12-20T02:34:24;101427.19;;;16.46;52.18
73455;BME280;61690;51.824;6.306;2023-12-20T02:36:50;101422.00;;;16.44;51.77
73455;BME280;61690;51.824;6.306;2023-12-20T02:39:16;101421.84;;;16.48;51.76
73455;BME280;61690;51.824;6.306;2023-12-20T02:41:41;101419.31;;;16.46;51.85
73455;BME280;61690;51.824;6.306;2023-12-20T02:44:06;101426.34;;;16.45;51.75
73455;BME280;61690;51.824;6.306;2023-12-20T02:46:31;101422.00;;;16.44;52.04
73455;BME280;61690;51.824;6.306;2023-12-20T02:48:57;101416.75;;;16.44;51.81
73455;BME280;61690;51.824;6.306;2023-12-20T02:51:22;101414.19;;;16.43;51.70
73455;BME280;61690;51.824;6.306;2023-12-20T02:53:47;101406.25;;;16.44;51.83
73455;BME280;61690;51.824;6.306;2023-12-20T02:56:12;101412.31;;;16.45;51.53
73455;BME280;61690;51.824;6.306;2023-12-20T02:58:39;101410.66;;;16.44;51.93
73455;BME280;61690;51.824;6.306;2023-12-20T03:01:05;101402.91;;;16.41;51.76
73455;BME280;61690;51.824;6.306;2023-12-20T03:03:30;101398.50;;;16.41;51.92
73455;BME280;61690;51.824;6.306;2023-12-20T03:05:55;101394.97;;;16.42;51.80
73455;BME280;61690;51.824;6.306;2023-12-20T03:08:20;101393.34;;;16.40;51.89
73455;BME280;61690;51.824;6.306;2023-12-20T03:10:46;101392.56;;;16.38;51.74
73455;BME280;61690;51.824;6.306;2023-12-20T03:13:11;101401.28;;;16.38;51.81
73455;BME280;61690;51.824;6.306;2023-12-20T03:15:36;101389.94;;;16.38;52.03
73455;BME280;61690;51.824;6.306;2023-12-20T03:18:02;101390.91;;;16.35;51.96
73455;BME280;61690;51.824;6.306;2023-12-20T03:20:28;101396.16;;;16.35;51.82
73455;BME280;61690;51.824;6.306;2023-12-20T03:22:53;101390.91;;;16.35;52.23
73455;BME280;61690;51.824;6.306;2023-12-20T03:25:18;101385.66;;;16.35;52.12
73455;BME280;61690;51.824;6.306;2023-12-20T03:27:43;101385.66;;;16.35;52.28
73455;BME280;61690;51.824;6.306;2023-12-20T03:30:09;101383.03;;;16.35;51.92
73455;BME280;61690;51.824;6.306;2023-12-20T03:32:34;101384.06;;;16.33;52.20
73455;BME280;61690;51.824;6.306;2023-12-20T03:35:00;101387.53;;;16.33;52.15
73455;BME280;61690;51.824;6.306;2023-12-20T03:37:25;101384.91;;;16.33;51.93
73455;BME280;61690;51.824;6.306;2023-12-20T03:39:50;101384.91;;;16.33;51.97
73455;BME280;61690;51.824;6.306;2023-12-20T03:42:16;101382.13;;;16.36;52.00
73455;BME280;61690;51.824;6.306;2023-12-20T03:44:41;101378.72;;;16.34;52.10
73455;BME280;61690;51.824;6.306;2023-12-20T03:47:06;101373.47;;;16.34;51.92
73455;BME280;61690;51.824;6.306;2023-12-20T03:49:32;101374.41;;;16.33;52.02
73455;BME280;61690;51.824;6.306;2023-12-20T03:51:57;101375.16;;;16.35;51.89
73455;BME280;61690;51.824;6.306;2023-12-20T03:54:22;101359.59;;;16.32;51.45
73455;BME280;61690;51.824;6.306;2023-12-20T03:56:47;101375.53;;;16.27;52.24
73455;BME280;61690;51.824;6.306;2023-12-20T03:59:13;101371.00;;;16.31;51.88
73455;BME280;61690;51.824;6.306;2023-12-20T04:01:43;101371.00;;;16.31;51.88
73455;BME280;61690;51.824;6.306;2023-12-20T04:04:09;101373.56;;;16.33;52.01
73455;BME280;61690;51.824;6.306;2023-12-20T04:06:35;101364.53;;;16.38;51.98
73455;BME280;61690;51.824;6.306;2023-12-20T04:09:00;101367.63;;;16.46;51.34
73455;BME280;61690;51.824;6.306;2023-12-20T04:11:25;101380.63;;;16.67;50.97
73455;BME280;61690;51.824;6.306;2023-12-20T04:13:50;101380.34;;;16.91;50.77
73455;BME280;61690;51.824;6.306;2023-12-20T04:16:16;101376.63;;;17.12;50.20
73455;BME280;61690;51.824;6.306;2023-12-20T04:18:41;101372.13;;;17.32;49.90
73455;BME280;61690;51.824;6.306;2023-12-20T04:21:06;101376.59;;;17.47;49.26
73455;BME280;61690;51.824;6.306;2023-12-20T04:23:32;101381.31;;;17.56;49.24
73455;BME280;61690;51.824;6.306;2023-12-20T04:25:57;101377.44;;;17.63;49.30
73455;BME280;61690;51.824;6.306;2023-12-20T04:28:23;101369.22;;;17.70;48.98
73455;BME280;61690;51.824;6.306;2023-12-20T04:30:48;101367.81;;;17.80;49.07
73455;BME280;61690;51.824;6.306;2023-12-20T04:33:13;101365.63;;;17.88;48.91
73455;BME280;61690;51.824;6.306;2023-12-20T04:35:38;101367.00;;;17.95;48.37
73455;BME280;61690;51.824;6.306;2023-12-20T04:38:05;101369.19;;;18.03;48.17
73455;BME280;61690;51.824;6.306;2023-12-20T04:40:31;101363.66;;;18.08;48.23
73455;BME280;61690;51.824;6.306;2023-12-20T04:42:56;101360.69;;;18.14;48.19
73455;BME280;61690;51.824;6.306;2023-12-20T04:45:21;101359.59;;;18.18;48.33
73455;BME280;61690;51.824;6.306;2023-12-20T04:47:48;101361.00;;;18.23;48.34
73455;BME280;61690;51.824;6.306;2023-12-20T04:50:14;101363.41;;;18.28;47.94
73455;BME280;61690;51.824;6.306;2023-12-20T04:52:39;101368.41;;;18.33;48.09
73455;BME280;61690;51.824;6.306;2023-12-20T04:55:05;101366.38;;;18.38;47.81
73455;BME280;61690;51.824;6.306;2023-12-20T04:57:30;101374.09;;;18.41;48.22
73455;BME280;61690;51.824;6.306;2023-12-20T04:59:55;101365.91;;;18.46;48.15
73455;BME280;61690;51.824;6.306;2023-12-20T05:02:21;101357.66;;;18.52;47.92
73455;BME280;61690;51.824;6.306;2023-12-20T05:04:46;101362.00;;;18.53;48.01
73455;BME280;61690;51.824;6.306;2023-12-20T05:07:11;101368.28;;;18.50;48.18
73455;BME280;61690;51.824;6.306;2023-12-20T05:09:37;101365.91;;;18.46;47.94
73455;BME280;61690;51.824;6.306;2023-12-20T05:12:02;101367.03;;;18.41;48.33
73455;BME280;61690;51.824;6.306;2023-12-20T05:14:27;101366.28;;;18.39;48.41
73455;BME280;61690;51.824;6.306;2023-12-20T05:16:53;101356.94;;;18.34;48.16
73455;BME280;61690;51.824;6.306;2023-12-20T05:19:18;101353.72;;;18.29;48.45
73455;BME280;61690;51.824;6.306;2023-12-20T05:21:43;101361.88;;;18.24;48.66
73455;BME280;61690;51.824;6.306;2023-12-20T05:24:08;101360.38;;;18.20;48.69
73455;BME280;61690;51.824;6.306;2023-12-20T05:26:34;101358.06;;;18.14;48.85
73455;BME280;61690;51.824;6.306;2023-12-20T05:28:59;101351.19;;;18.11;48.74
73455;BME280;61690;51.824;6.306;2023-12-20T05:31:24;101346.00;;;18.10;49.12
73455;BME280;61690;51.824;6.306;2023-12-20T05:33:50;101344.41;;;18.07;49.45
73455;BME280;61690;51.824;6.306;2023-12-20T05:36:15;101343.88;;;18.00;49.19
73455;BME280;61690;51.824;6.306;2023-12-20T05:38:40;101338.44;;;18.03;50.05
73455;BME280;61690;51.824;6.306;2023-12-20T05:41:06;101337.09;;;17.96;50.19
73455;BME280;61690;51.824;6.306;2023-12-20T05:43:31;101335.75;;;17.89;49.82
73455;BME280;61690;51.824;6.306;2023-12-20T05:45:56;101333.28;;;17.86;50.39
73455;BME280;61690;51.824;6.306;2023-12-20T05:48:21;101329.03;;;17.83;49.77
73455;BME280;61690;51.824;6.306;2023-12-20T05:50:47;101336.16;;;17.81;50.13
73455;BME280;61690;51.824;6.306;2023-12-20T05:53:13;101333.84;;;17.75;50.56
73455;BME280;61690;51.824;6.306;2023-12-20T05:55:38;101335.69;;;17.73;50.34
73455;BME280;61690;51.824;6.306;2023-12-20T05:58:03;101334.84;;;17.73;50.28
73455;BME280;61690;51.824;6.306;2023-12-20T06:00:30;101333.34;;;17.69;50.42
73455;BME280;61690;51.824;6.306;2023-12-20T06:02:55;101346.63;;;17.66;50.31
73455;BME280;61690;51.824;6.306;2023-12-20T06:05:20;101347.75;;;17.61;50.48
73455;BME280;61690;51.824;6.306;2023-12-20T06:07:45;101350.44;;;17.60;50.19
73455;BME280;61690;51.824;6.306;2023-12-20T06:10:13;101339.34;;;17.55;50.64
73455;BME280;61690;51.824;6.306;2023-12-20T06:12:39;101341.09;;;17.54;50.81
73455;BME280;61690;51.824;6.306;2023-12-20T06:15:04;101355.34;;;17.50;50.26
73455;BME280;61690;51.824;6.306;2023-12-20T06:17:31;101347.72;;;17.46;50.71
73455;BME280;61690;51.824;6.306;2023-12-20T06:19:56;101356.53;;;17.44;50.67
73455;BME280;61690;51.824;6.306;2023-12-20T06:22:21;101343.56;;;17.41;50.46
73455;BME280;61690;51.824;6.306;2023-12-20T06:24:47;101348.91;;;17.40;50.74
73455;BME280;61690;51.824;6.306;2023-12-20T06:27:12;101350.59;;;17.41;50.34
73455;BME280;61690;51.824;6.306;2023-12-20T06:29:38;101356.88;;;17.38;50.54
73455;BME280;61690;51.824;6.306;2023-12-20T06:32:03;101355.25;;;17.36;50.54
73455;BME280;61690;51.824;6.306;2023-12-20T06:34:29;101348.91;;;17.40;50.54
73455;BME280;61690;51.824;6.306;2023-12-20T06:36:54;101343.09;;;17.33;50.56
73455;BME280;61690;51.824;6.306;2023-12-20T06:39:19;101337.78;;;17.35;50.38
73455;BME280;61690;51.824;6.306;2023-12-20T06:41:45;101336.25;;;17.31;50.89
73455;BME280;61690;51.824;6.306;2023-12-20T06:44:10;101330.22;;;17.29;50.94
73455;BME280;61690;51.824;6.306;2023-12-20T06:46:35;101333.75;;;17.28;50.68
73455;BME280;61690;51.824;6.306;2023-12-20T06:49:00;101333.00;;;17.25;50.80
73455;BME280;61690;51.824;6.306;2023-12-20T06:51:26;101330.38;;;17.25;51.18
73455;BME280;61690;51.824;6.306;2023-12-20T06:53:52;101335.53;;;17.27;51.03
73455;BME280;61690;51.824;6.306;2023-12-20T06:56:17;101327.16;;;17.20;51.10
73455;BME280;61690;51.824;6.306;2023-12-20T06:58:42;101332.56;;;17.17;51.01
73455;BME280;61690;51.824;6.306;2023-12-20T07:01:12;101331.78;;;17.15;50.82
73455;BME280;61690;51.824;6.306;2023-12-20T07:03:37;101335.44;;;17.13;51.02
73455;BME280;61690;51.824;6.306;2023-12-20T07:06:03;101334.75;;;17.09;51.07
73455;BME280;61690;51.824;6.306;2023-12-20T07:08:28;101325.91;;;17.10;51.33
73455;BME280;61690;51.824;6.306;2023-12-20T07:10:54;101339.16;;;17.09;51.40
73455;BME280;61690;51.824;6.306;2023-12-20T07:13:19;101332.19;;;17.08;51.28
73455;BME280;61690;51.824;6.306;2023-12-20T07:15:44;101335.72;;;17.07;51.02
73455;BME280;61690;51.824;6.306;2023-12-20T07:18:09;101341.09;;;17.05;51.49
73455;BME280;61690;51.824;6.306;2023-12-20T07:20:35;101334.06;;;17.05;50.95
73455;BME280;61690;51.824;6.306;2023-12-20T07:23:00;101335.97;;;17.02;51.24
73455;BME280;61690;51.824;6.306;2023-12-20T07:25:25;101328.88;;;17.04;50.96
73455;BME280;61690;51.824;6.306;2023-12-20T07:27:51;101328.25;;;16.99;51.24
73455;BME280;61690;51.824;6.306;2023-12-20T07:30:16;101329.19;;;16.98;51.24
73455;BME280;61690;51.824;6.306;2023-12-20T07:32:41;101324.84;;;16.97;51.24
73455;BME280;61690;51.824;6.306;2023-12-20T07:35:07;101331.13;;;16.94;51.38
73455;BME280;61690;51.824;6.306;2023-12-20T07:37:32;101328.50;;;16.94;51.57
73455;BME280;61690;51.824;6.306;2023-12-20T07:39:57;101342.47;;;16.95;51.44
73455;BME280;61690;51.824;6.306;2023-12-20T07:42:23;101330.09;;;16.97;50.99
73455;BME280;61690;51.824;6.306;2023-12-20T07:44:48;101337.41;;;16.92;51.05
73455;BME280;61690;51.824;6.306;2023-12-20T07:47:14;101344.50;;;16.90;51.15
73455;BME280;61690;51.824;6.306;2023-12-20T07:49:43;101333.97;;;17.40;50.28
73455;BME280;61690;51.824;6.306;2023-12-20T07:52:08;101332.50;;;17.35;50.84
73455;BME280;61690;51.824;6.306;2023-12-20T07:54:34;101328.00;;;17.21;50.95
73455;BME280;61690;51.824;6.306;2023-12-20T07:56:59;101346.94;;;17.10;51.23
73455;BME280;61690;51.824;6.306;2023-12-20T07:59:24;101337.84;;;17.00;51.10
73455;BME280;61690;51.824;6.306;2023-12-20T08:01:50;101335.34;;;16.97;51.27
73455;BME280;61690;51.824;6.306;2023-12-20T08:04:15;101339.00;;;16.94;51.10
73455;BME280;61690;51.824;6.306;2023-12-20T08:06:40;101345.09;;;16.95;51.22
73455;BME280;61690;51.824;6.306;2023-12-20T08:09:05;101347.91;;;16.92;51.07
73455;BME280;61690;51.824;6.306;2023-12-20T08:11:31;101343.81;;;16.86;51.55
73455;BME280;61690;51.824;6.306;2023-12-20T08:13:56;101342.09;;;16.85;51.57
73455;BME280;61690;51.824;6.306;2023-12-20T08:16:21;101348.06;;;16.89;51.43
73455;BME280;61690;51.824;6.306;2023-12-20T08:18:47;101353.31;;;16.89;51.50
73455;BME280;61690;51.824;6.306;2023-12-20T08:21:12;101358.63;;;16.87;51.36
73455;BME280;61690;51.824;6.306;2023-12-20T08:23:38;101349.84;;;16.88;51.53
73455;BME280;61690;51.824;6.306;2023-12-20T08:26:07;101353.22;;;16.90;51.09
73455;BME280;61690;51.824;6.306;2023-12-20T08:28:33;101355.31;;;16.83;51.33
73455;BME280;61690;51.824;6.306;2023-12-20T08:31:00;101357.94;;;16.83;51.41
73455;BME280;61690;51.824;6.306;2023-12-20T08:36:47;101365.00;;;16.81;51.08
73455;BME280;61690;51.824;6.306;2023-12-20T08:39:12;101356.38;;;16.79;51.29
73455;BME280;61690;51.824;6.306;2023-12-20T08:41:38;101355.44;;;16.80;51.04
73455;BME280;61690;51.824;6.306;2023-12-20T08:44:03;101352.06;;;16.78;51.37
73455;BME280;61690;51.824;6.306;2023-12-20T08:46:29;101349.44;;;16.78;51.39
73455;BME280;61690;51.824;6.306;2023-12-20T08:48:54;101336.28;;;16.78;51.22
73455;BME280;61690;51.824;6.306;2023-12-20T08:51:20;101332.88;;;16.76;51.04
73455;BME280;61690;51.824;6.306;2023-12-20T08:53:47;101331.94;;;16.77;51.05
73455;BME280;61690;51.824;6.306;2023-12-20T08:56:13;101335.66;;;16.73;51.04
73455;BME280;61690;51.824;6.306;2023-12-20T08:58:39;101333.97;;;16.72;51.13
73455;BME280;61690;51.824;6.306;2023-12-20T09:01:04;101342.53;;;16.76;50.97
73455;BME280;61690;51.824;6.306;2023-12-20T09:03:29;101330.97;;;16.80;51.04
73455;BME280;61690;51.824;6.306;2023-12-20T09:05:55;101332.59;;;16.82;51.30
73455;BME280;61690;51.824;6.306;2023-12-20T09:08:20;101319.00;;;16.92;50.53
73455;BME280;61690;51.824;6.306;2023-12-20T09:10:45;101320.66;;;17.10;50.53
73455;BME280;61690;51.824;6.306;2023-12-20T09:13:11;101316.81;;;17.33;49.98
73455;BME280;61690;51.824;6.306;2023-12-20T09:15:36;101321.00;;;17.53;49.40
73455;BME280;61690;51.824;6.306;2023-12-20T09:18:02;101316.78;;;17.67;49.32
73455;BME280;61690;51.824;6.306;2023-12-20T09:20:27;101313.66;;;17.76;48.65
73455;BME280;61690;51.824;6.306;2023-12-20T09:22:53;101313.16;;;17.85;48.80
73455;BME280;61690;51.824;6.306;2023-12-20T09:25:18;101325.03;;;17.92;48.31
73455;BME280;61690;51.824;6.306;2023-12-20T09:27:44;101318.59;;;17.98;48.69
73455;BME280;61690;51.824;6.306;2023-12-20T09:30:09;101317.41;;;18.03;48.62
73455;BME280;61690;51.824;6.306;2023-12-20T09:32:34;101322.97;;;18.13;48.13
73455;BME280;61690;51.824;6.306;2023-12-20T09:35:00;101322.75;;;18.18;48.45
73455;BME280;61690;51.824;6.306;2023-12-20T09:37:27;101325.84;;;18.25;48.39
73455;BME280;61690;51.824;6.306;2023-12-20T09:39:53;101321.06;;;18.31;48.21
73455;BME280;61690;51.824;6.306;2023-12-20T09:42:25;101332.13;;;18.38;48.06
73455;BME280;61690;51.824;6.306;2023-12-20T09:44:54;101328.28;;;18.44;47.64
73455;BME280;61690;51.824;6.306;2023-12-20T09:47:23;101332.34;;;18.49;47.74
73455;BME280;61690;51.824;6.306;2023-12-20T09:49:50;101332.06;;;18.54;47.89
73455;BME280;61690;51.824;6.306;2023-12-20T09:52:18;101323.81;;;18.60;47.75
73455;BME280;61690;51.824;6.306;2023-12-20T09:54:43;101322.50;;;18.67;47.58
73455;BME280;61690;51.824;6.306;2023-12-20T09:57:09;101319.63;;;18.72;47.37
73455;BME280;61690;51.824;6.306;2023-12-20T09:59:35;101332.50;;;18.76;47.35
73455;BME280;61690;51.824;6.306;2023-12-20T10:02:01;101333.44;;;18.75;47.91
73455;BME280;61690;51.824;6.306;2023-12-20T10:04:31;101318.25;;;18.80;47.76
73455;BME280;61690;51.824;6.306;2023-12-20T10:07:02;101328.63;;;18.84;47.67
73455;BME280;61690;51.824;6.306;2023-12-20T10:09:31;101326.06;;;18.82;47.66
73455;BME280;61690;51.824;6.306;2023-12-20T10:11:57;101320.03;;;18.80;47.71
73455;BME280;61690;51.824;6.306;2023-12-20T10:14:22;101319.41;;;18.75;48.12
73455;BME280;61690;51.824;6.306;2023-12-20T10:16:51;101317.06;;;18.70;48.46
73455;BME280;61690;51.824;6.306;2023-12-20T10:19:17;101326.94;;;18.67;48.62
73455;BME280;61690;51.824;6.306;2023-12-20T10:21:43;101322.06;;;18.45;49.29
73455;BME280;61690;51.824;6.306;2023-12-20T10:24:16;101317.69;;;18.29;50.05
73455;BME280;61690;51.824;6.306;2023-12-20T10:26:42;101322.19;;;18.27;50.47
73455;BME280;61690;51.824;6.306;2023-12-20T10:29:07;101320.66;;;18.23;50.79
73455;BME280;61690;51.824;6.306;2023-12-20T10:31:34;101322.63;;;18.19;50.78
73455;BME280;61690;51.824;6.306;2023-12-20T10:34:01;101326.22;;;18.18;50.68
73455;BME280;61690;51.824;6.306;2023-12-20T10:36:29;101329.69;;;18.19;50.66
73455;BME280;61690;51.824;6.306;2023-12-20T10:38:56;101327.81;;;18.21;50.95
73455;BME280;61690;51.824;6.306;2023-12-20T10:41:30;101324.25;;;18.22;50.80
73455;BME280;61690;51.824;6.306;2023-12-20T10:44:00;101333.91;;;18.21;50.88
73455;BME280;61690;51.824;6.306;2023-12-20T10:46:27;101329.53;;;18.22;51.21
73455;BME280;61690;51.824;6.306;2023-12-20T10:48:56;101318.88;;;18.23;50.98
73455;BME280;61690;51.824;6.306;2023-12-20T10:51:22;101320.44;;;18.28;51.01
73455;BME280;61690;51.824;6.306;2023-12-20T10:53:49;101312.41;;;18.29;51.43
73455;BME280;61690;51.824;6.306;2023-12-20T10:56:17;101319.03;;;18.36;50.97
73455;BME280;61690;51.824;6.306;2023-12-20T10:58:52;101317.84;;;18.42;50.83
73455;BME280;61690;51.824;6.306;2023-12-20T11:01:18;101310.69;;;18.44;50.95
73455;BME280;61690;51.824;6.306;2023-12-20T11:03:51;101312.47;;;18.44;50.60
73455;BME280;61690;51.824;6.306;2023-12-20T11:11:31;101312.94;;;18.36;50.45
73455;BME280;61690;51.824;6.306;2023-12-20T11:14:13;101303.44;;;18.33;50.98
73455;BME280;61690;51.824;6.306;2023-12-20T11:16:41;101298.31;;;18.30;50.40
73455;BME280;61690;51.824;6.306;2023-12-20T11:19:06;101289.75;;;18.27;50.78
73455;BME280;61690;51.824;6.306;2023-12-20T11:21:32;101291.47;;;18.28;51.27
73455;BME280;61690;51.824;6.306;2023-12-20T11:23:57;101280.41;;;18.21;51.39
73455;BME280;61690;51.824;6.306;2023-12-20T11:26:27;101281.19;;;18.23;51.49
73455;BME280;61690;51.824;6.306;2023-12-20T11:29:43;101284.66;;;18.23;52.08
73455;BME280;61690;51.824;6.306;2023-12-20T11:34:59;101277.84;;;18.35;52.31
73455;BME280;61690;51.824;6.306;2023-12-20T11:37:31;101285.63;;;18.37;52.45
73455;BME280;61690;51.824;6.306;2023-12-20T11:40:01;101282.00;;;18.39;52.55
73455;BME280;61690;51.824;6.306;2023-12-20T11:42:27;101270.63;;;18.39;52.78
73455;BME280;61690;51.824;6.306;2023-12-20T11:44:53;101266.09;;;18.41;52.73
73455;BME280;61690;51.824;6.306;2023-12-20T11:47:18;101271.47;;;18.39;53.00
73455;BME280;61690;51.824;6.306;2023-12-20T11:49:47;101269.28;;;18.32;53.05
73455;BME280;61690;51.824;6.306;2023-12-20T11:52:12;101266.63;;;18.32;53.21
73455;BME280;61690;51.824;6.306;2023-12-20T11:54:38;101261.09;;;18.36;53.02
73455;BME280;61690;51.824;6.306;2023-12-20T11:57:03;101255.03;;;18.20;52.31
73455;BME280;61690;51.824;6.306;2023-12-20T11:59:29;101263.34;;;18.28;52.18
73455;BME280;61690;51.824;6.306;2023-12-20T12:01:56;101268.53;;;18.30;52.39
73455;BME280;61690;51.824;6.306;2023-12-20T12:04:25;101256.94;;;18.32;52.54
73455;BME280;61690;51.824;6.306;2023-12-20T12:06:51;101264.47;;;18.38;52.50
73455;BME280;61690;51.824;6.306;2023-12-20T12:09:17;101256.78;;;18.35;52.72
73455;BME280;61690;51.824;6.306;2023-12-20T12:11:42;101266.56;;;18.33;52.34
73455;BME280;61690;51.824;6.306;2023-12-20T12:14:08;101255.06;;;18.34;52.33
73455;BME280;61690;51.824;6.306;2023-12-20T12:16:33;101257.53;;;18.37;52.31
73455;BME280;61690;51.824;6.306;2023-12-20T12:18:59;101246.03;;;18.24;52.24
73455;BME280;61690;51.824;6.306;2023-12-20T12:21:25;101246.38;;;18.18;52.41
73455;BME280;61690;51.824;6.306;2023-12-20T12:23:51;101251.47;;;18.21;52.77
73455;BME280;61690;51.824;6.306;2023-12-20T12:26:16;101247.34;;;18.31;52.29
73455;BME280;61690;51.824;6.306;2023-12-20T12:28:42;101239.47;;;18.46;51.94
73455;BME280;61690;51.824;6.306;2023-12-20T12:31:09;101247.59;;;18.57;51.46
73455;BME280;61690;51.824;6.306;2023-12-20T12:33:38;101239.22;;;18.65;51.06
73455;BME280;61690;51.824;6.306;2023-12-20T12:36:04;101224.94;;;18.69;50.79
73455;BME280;61690;51.824;6.306;2023-12-20T12:38:32;101239.59;;;18.73;50.63
73455;BME280;61690;51.824;6.306;2023-12-20T12:40:57;101234.06;;;18.77;50.63
73455;BME280;61690;51.824;6.306;2023-12-20T12:43:23;101235.75;;;18.78;50.67
73455;BME280;61690;51.824;6.306;2023-12-20T12:45:49;101237.47;;;18.79;50.54
73455;BME280;61690;51.824;6.306;2023-12-20T12:48:14;101225.22;;;18.78;50.23
73455;BME280;61690;51.824;6.306;2023-12-20T12:50:40;101219.19;;;18.76;50.57
73455;BME280;61690;51.824;6.306;2023-12-20T12:53:05;101214.09;;;18.73;50.50
73455;BME280;61690;51.824;6.306;2023-12-20T12:55:31;101205.25;;;18.74;50.46